Fort Ripley, Minnesota
Current Conditions -  °F | °C
As of 4:19 AM on Saturday 20 Dec 2014 (Local Time) from KLXL Reporting Station
Haze Haze  
Wind Chill: 26°   Ceiling: 800
Heat Index: 32°   Visibility: 3mi
Dew Point: 28°   Wind: 6mph
Humidity: 87%   Direction: 180°S
Pressure: 30.09"   Gusts: NA
Location:  46.17°N, 94.36°W
Report Text: KLXL 201019Z AUTO 18005KT 3SM BR OVC008 00/M02 A3009 RMK AO2
Loading
Personal Weather Stations






























Interactive Weather Map New forecast layout! Learn more

10-Day Weather Forecast

Advertisements
Track Severe Weather on mobile